Language selection

My Weather Profile Weather Topics  | 

Douglas Channel: Past 24 Hour Conditions

 

North Hecate Strait - 46183

08:00 PM PDT 03 July 2022Buoy position: 53.63N 131.1W
Disclaimer

This table is a summary of hourly weather conditions for the past 24 hours.
Please note that these observations might not always be representative of weather conditions over their associated marine area.

Date / Time
(PDT)
Wind(knots) Wave height(m) Wave period(s) Pressure(kPa) Air tempC) Water tempC)
03 July 2022
20:00 N 11 gust 13 1.0 5.3 101.1 14 14
19:00 N 11 gust 13 1.0 4.9 101.1 15 14
18:00 N 10 gust 11 0.8 4.7 101.1 15 14
17:00 N 12 gust 14 0.8 4.6 101.0 14 14
16:00 N 13 gust 15 1.0 4.7 101.1 14 14
15:00 NNW 12 gust 15 1.0 4.9 101.1 15 14
14:00 NNW 12 gust 15 1.2 4.9 101.1 15 14
13:00 NNW 15 gust 18 1.1 5.0 101.1 14 14
12:00 NNW 16 gust 18 1.0 5.0 101.2 14 14
11:00 NNW 17 gust 20 0.9 4.7 101.2 14 14
10:00 NNW 15 gust 17 1.0 4.7 101.2 14 14
9:00 NNW 15 gust 18 1.0 4.9 101.2 14 14
8:00 NNW 15 gust 17 1.1 4.7 101.2 14 14
7:00 NNW 14 gust 17 0.9 5.0 101.3 13 14
6:00 NNW 15 gust 17 1.0 4.5 101.3 13 14
5:00 NNW 13 gust 16 0.9 4.8 101.3 13 14
4:00 NNW 12 gust 15 N/A 4.5 101.3 13 14
3:00 NNW 12 gust 14 0.8 4.6 101.3 13 14
2:00 NNW 11 gust 14 0.8 4.3 101.3 13 14
1:00 NNW 12 gust 14 0.8 4.4 101.4 13 14
0:00 NNW 13 gust 15 0.7 4.3 101.4 13 14
02 July 2022
23:00 NNW 14 gust 17 0.6 3.8 101.4 13 14
22:00 NNW 14 gust 17 0.6 3.6 101.4 14 14
21:00 N 13 gust 16 0.5 3.3 101.4 14 14
20:00 N 12 gust 14 0.5 3.4 101.4 15 15

Zoom-in to make a selection

Map of Pacific - North Coast marine weather areas Middle Nomad - 46004 South Nomad - 46036 Dixon Entrance Central - 46145 South Moresby - 46147 Nanakwa Shoal - 46181 North Hecate Strait - 46183 North Nomad - 46184 South Hecate Strait - 46185 West Sea Otter - 46204 West Dixon Entrance - 46205 East Dellwood - 46207 West Moresby - 46208 Sartine Island Cape St.James Kindakun Rocks Langara Island Masset Municipal Airport Rose Spit Sandspit Airport Bella Bella Airport Bella Coola Airport Bonilla Island Cathedral Point Cumshewa Island Grey Islet Holland Rock Lucy Islands Lightstation Prince Rupert Airport
Legend:
buoy Buoy
land station Land Station

Pacific - North Coast Area

Another Region

What we are doing

Features

WeatherCAN app: set custom notifications

Learn how to set custom Air Quality Health Index notifications on the WeatherCAN app

Date modified: